sensor_id;sensor_type;location;lat;lon;timestamp;pressure;altitude;pressure_sealevel;temperature
20058;BMP180;10189;49.546;7.906;2022-12-20T00:01:20;98524.00;;;7.30
20058;BMP180;10189;49.546;7.906;2022-12-20T00:03:52;98521.00;;;7.40
20058;BMP180;10189;49.546;7.906;2022-12-20T00:06:20;98520.00;;;7.50
20058;BMP180;10189;49.546;7.906;2022-12-20T00:08:46;98515.00;;;7.60
20058;BMP180;10189;49.546;7.906;2022-12-20T00:11:17;98491.00;;;7.70
20058;BMP180;10189;49.546;7.906;2022-12-20T00:13:45;98501.00;;;7.70
20058;BMP180;10189;49.546;7.906;2022-12-20T00:16:15;98498.00;;;7.90
20058;BMP180;10189;49.546;7.906;2022-12-20T00:18:42;98508.00;;;8.00
20058;BMP180;10189;49.546;7.906;2022-12-20T00:21:12;98492.00;;;8.10
20058;BMP180;10189;49.546;7.906;2022-12-20T00:23:39;98503.00;;;7.90
20058;BMP180;10189;49.546;7.906;2022-12-20T00:26:16;98494.00;;;7.90
20058;BMP180;10189;49.546;7.906;2022-12-20T00:28:44;98504.00;;;7.90
20058;BMP180;10189;49.546;7.906;2022-12-20T00:31:13;98512.00;;;7.70
20058;BMP180;10189;49.546;7.906;2022-12-20T00:33:40;98501.00;;;7.70
20058;BMP180;10189;49.546;7.906;2022-12-20T00:36:08;98512.00;;;7.50
20058;BMP180;10189;49.546;7.906;2022-12-20T00:38:35;98515.00;;;7.50
20058;BMP180;10189;49.546;7.906;2022-12-20T00:41:06;98508.00;;;7.50
20058;BMP180;10189;49.546;7.906;2022-12-20T00:43:33;98506.00;;;7.50
20058;BMP180;10189;49.546;7.906;2022-12-20T00:46:00;98500.00;;;7.40
20058;BMP180;10189;49.546;7.906;2022-12-20T00:48:28;98491.00;;;7.40
20058;BMP180;10189;49.546;7.906;2022-12-20T00:51:07;98499.00;;;7.50
20058;BMP180;10189;49.546;7.906;2022-12-20T00:53:35;98506.00;;;7.60
20058;BMP180;10189;49.546;7.906;2022-12-20T00:56:02;98511.00;;;7.60
20058;BMP180;10189;49.546;7.906;2022-12-20T00:58:28;98506.00;;;7.50
20058;BMP180;10189;49.546;7.906;2022-12-20T01:00:56;98502.00;;;7.40
20058;BMP180;10189;49.546;7.906;2022-12-20T01:03:23;98512.00;;;7.40
20058;BMP180;10189;49.546;7.906;2022-12-20T01:05:58;98502.00;;;7.50
20058;BMP180;10189;49.546;7.906;2022-12-20T01:08:28;98498.00;;;7.30
20058;BMP180;10189;49.546;7.906;2022-12-20T01:13:36;98506.00;;;7.50
20058;BMP180;10189;49.546;7.906;2022-12-20T01:16:14;98492.00;;;7.50
20058;BMP180;10189;49.546;7.906;2022-12-20T01:18:40;98498.00;;;7.60
20058;BMP180;10189;49.546;7.906;2022-12-20T01:21:10;98494.00;;;7.80
20058;BMP180;10189;49.546;7.906;2022-12-20T01:23:38;98495.00;;;7.90
20058;BMP180;10189;49.546;7.906;2022-12-20T01:26:09;98487.00;;;8.10
20058;BMP180;10189;49.546;7.906;2022-12-20T01:28:37;98489.00;;;8.10
20058;BMP180;10189;49.546;7.906;2022-12-20T01:31:08;98480.00;;;8.30
20058;BMP180;10189;49.546;7.906;2022-12-20T01:33:36;98477.00;;;8.30
20058;BMP180;10189;49.546;7.906;2022-12-20T01:36:06;98468.00;;;8.30
20058;BMP180;10189;49.546;7.906;2022-12-20T01:38:33;98457.00;;;8.20
20058;BMP180;10189;49.546;7.906;2022-12-20T01:41:01;98468.00;;;8.10
20058;BMP180;10189;49.546;7.906;2022-12-20T01:43:53;98471.00;;;8.00
20058;BMP180;10189;49.546;7.906;2022-12-20T01:46:22;98480.00;;;8.00
20058;BMP180;10189;49.546;7.906;2022-12-20T01:49:10;98469.00;;;8.10
20058;BMP180;10189;49.546;7.906;2022-12-20T01:51:43;98472.00;;;8.10
20058;BMP180;10189;49.546;7.906;2022-12-20T01:54:24;98471.00;;;8.00
20058;BMP180;10189;49.546;7.906;2022-12-20T01:56:57;98465.00;;;7.90
20058;BMP180;10189;49.546;7.906;2022-12-20T01:59:25;98465.00;;;7.90
20058;BMP180;10189;49.546;7.906;2022-12-20T02:01:51;98456.00;;;7.90
20058;BMP180;10189;49.546;7.906;2022-12-20T02:04:17;98461.00;;;7.90
20058;BMP180;10189;49.546;7.906;2022-12-20T02:06:43;98462.00;;;7.90
20058;BMP180;10189;49.546;7.906;2022-12-20T02:09:09;98456.00;;;7.90
20058;BMP180;10189;49.546;7.906;2022-12-20T02:12:08;98461.00;;;7.90
20058;BMP180;10189;49.546;7.906;2022-12-20T02:18:16;98445.00;;;7.70
20058;BMP180;10189;49.546;7.906;2022-12-20T02:24:38;98437.00;;;7.60
20058;BMP180;10189;49.546;7.906;2022-12-20T02:30:12;98441.00;;;7.50
20058;BMP180;10189;49.546;7.906;2022-12-20T02:32:58;98434.00;;;7.50
20058;BMP180;10189;49.546;7.906;2022-12-20T02:35:30;98432.00;;;7.50
20058;BMP180;10189;49.546;7.906;2022-12-20T02:38:02;98429.00;;;7.50
20058;BMP180;10189;49.546;7.906;2022-12-20T02:40:40;98439.00;;;7.60
20058;BMP180;10189;49.546;7.906;2022-12-20T02:43:09;98446.00;;;7.80
20058;BMP180;10189;49.546;7.906;2022-12-20T02:45:59;98432.00;;;7.90
20058;BMP180;10189;49.546;7.906;2022-12-20T02:48:30;98431.00;;;7.90
20058;BMP180;10189;49.546;7.906;2022-12-20T02:51:01;98431.00;;;7.90
20058;BMP180;10189;49.546;7.906;2022-12-20T02:53:28;98430.00;;;8.00
20058;BMP180;10189;49.546;7.906;2022-12-20T03:01:41;98402.00;;;8.10
20058;BMP180;10189;49.546;7.906;2022-12-20T03:04:10;98408.00;;;8.10
20058;BMP180;10189;49.546;7.906;2022-12-20T03:06:39;98406.00;;;8.30
20058;BMP180;10189;49.546;7.906;2022-12-20T03:09:20;98402.00;;;8.10
20058;BMP180;10189;49.546;7.906;2022-12-20T03:11:46;98396.00;;;8.20
20058;BMP180;10189;49.546;7.906;2022-12-20T03:14:12;98401.00;;;7.80
20058;BMP180;10189;49.546;7.906;2022-12-20T03:16:39;98402.00;;;7.80
20058;BMP180;10189;49.546;7.906;2022-12-20T03:19:06;98392.00;;;7.50
20058;BMP180;10189;49.546;7.906;2022-12-20T03:21:32;98398.00;;;7.20
20058;BMP180;10189;49.546;7.906;2022-12-20T03:23:57;98397.00;;;7.00
20058;BMP180;10189;49.546;7.906;2022-12-20T03:26:23;98393.00;;;6.80
20058;BMP180;10189;49.546;7.906;2022-12-20T03:28:54;98381.00;;;6.90
20058;BMP180;10189;49.546;7.906;2022-12-20T03:31:24;98381.00;;;6.90
20058;BMP180;10189;49.546;7.906;2022-12-20T03:33:53;98377.00;;;7.00
20058;BMP180;10189;49.546;7.906;2022-12-20T03:36:20;98384.00;;;7.10
20058;BMP180;10189;49.546;7.906;2022-12-20T03:38:50;98369.00;;;7.30
20058;BMP180;10189;49.546;7.906;2022-12-20T03:41:17;98375.00;;;7.60
20058;BMP180;10189;49.546;7.906;2022-12-20T03:43:43;98381.00;;;7.80
20058;BMP180;10189;49.546;7.906;2022-12-20T03:46:09;98380.00;;;8.20
20058;BMP180;10189;49.546;7.906;2022-12-20T03:48:37;98373.00;;;8.40
20058;BMP180;10189;49.546;7.906;2022-12-20T03:51:04;98364.00;;;8.50
20058;BMP180;10189;49.546;7.906;2022-12-20T03:53:30;98367.00;;;8.50
20058;BMP180;10189;49.546;7.906;2022-12-20T03:55:56;98373.00;;;8.60
20058;BMP180;10189;49.546;7.906;2022-12-20T03:58:23;98368.00;;;8.50
20058;BMP180;10189;49.546;7.906;2022-12-20T04:00:50;98375.00;;;8.40
20058;BMP180;10189;49.546;7.906;2022-12-20T04:03:36;98369.00;;;8.10
20058;BMP180;10189;49.546;7.906;2022-12-20T04:06:02;98374.00;;;8.00
20058;BMP180;10189;49.546;7.906;2022-12-20T04:08:28;98361.00;;;8.00
20058;BMP180;10189;49.546;7.906;2022-12-20T04:10:54;98363.00;;;7.90
20058;BMP180;10189;49.546;7.906;2022-12-20T04:13:48;98357.00;;;8.00
20058;BMP180;10189;49.546;7.906;2022-12-20T04:16:18;98353.00;;;8.00
20058;BMP180;10189;49.546;7.906;2022-12-20T04:18:45;98360.00;;;8.00
20058;BMP180;10189;49.546;7.906;2022-12-20T04:21:12;98360.00;;;8.20
20058;BMP180;10189;49.546;7.906;2022-12-20T04:23:42;98362.00;;;8.30
20058;BMP180;10189;49.546;7.906;2022-12-20T04:26:09;98366.00;;;8.40
20058;BMP180;10189;49.546;7.906;2022-12-20T04:28:36;98363.00;;;8.40
20058;BMP180;10189;49.546;7.906;2022-12-20T04:31:04;98354.00;;;8.50
20058;BMP180;10189;49.546;7.906;2022-12-20T04:33:33;98359.00;;;8.60
20058;BMP180;10189;49.546;7.906;2022-12-20T04:36:00;98357.00;;;8.60
20058;BMP180;10189;49.546;7.906;2022-12-20T04:38:27;98367.00;;;8.60
20058;BMP180;10189;49.546;7.906;2022-12-20T04:40:54;98363.00;;;8.80
20058;BMP180;10189;49.546;7.906;2022-12-20T04:43:23;98358.00;;;8.80
20058;BMP180;10189;49.546;7.906;2022-12-20T04:45:54;98356.00;;;8.80
20058;BMP180;10189;49.546;7.906;2022-12-20T04:48:26;98352.00;;;8.80
20058;BMP180;10189;49.546;7.906;2022-12-20T04:50:55;98344.00;;;8.90
20058;BMP180;10189;49.546;7.906;2022-12-20T04:53:22;98352.00;;;8.90
20058;BMP180;10189;49.546;7.906;2022-12-20T04:56:08;98343.00;;;8.90
20058;BMP180;10189;49.546;7.906;2022-12-20T04:58:34;98358.00;;;8.90
20058;BMP180;10189;49.546;7.906;2022-12-20T05:01:02;98352.00;;;8.90
20058;BMP180;10189;49.546;7.906;2022-12-20T05:03:36;98339.00;;;9.10
20058;BMP180;10189;49.546;7.906;2022-12-20T05:06:02;98342.00;;;9.10
20058;BMP180;10189;49.546;7.906;2022-12-20T05:08:29;98342.00;;;9.00
20058;BMP180;10189;49.546;7.906;2022-12-20T05:10:55;98336.00;;;9.00
20058;BMP180;10189;49.546;7.906;2022-12-20T05:13:20;98348.00;;;9.00
20058;BMP180;10189;49.546;7.906;2022-12-20T05:15:55;98338.00;;;9.00
20058;BMP180;10189;49.546;7.906;2022-12-20T05:18:26;98344.00;;;9.00
20058;BMP180;10189;49.546;7.906;2022-12-20T05:20:59;98328.00;;;9.10
20058;BMP180;10189;49.546;7.906;2022-12-20T05:23:47;98329.00;;;9.00
20058;BMP180;10189;49.546;7.906;2022-12-20T05:26:38;98327.00;;;9.00
20058;BMP180;10189;49.546;7.906;2022-12-20T05:29:06;98318.00;;;9.00
20058;BMP180;10189;49.546;7.906;2022-12-20T05:31:32;98328.00;;;9.10
20058;BMP180;10189;49.546;7.906;2022-12-20T05:33:58;98326.00;;;9.10
20058;BMP180;10189;49.546;7.906;2022-12-20T05:36:28;98317.00;;;9.10
20058;BMP180;10189;49.546;7.906;2022-12-20T05:38:57;98325.00;;;9.20
20058;BMP180;10189;49.546;7.906;2022-12-20T05:41:23;98320.00;;;9.20
20058;BMP180;10189;49.546;7.906;2022-12-20T05:43:51;98320.00;;;9.20
20058;BMP180;10189;49.546;7.906;2022-12-20T05:46:17;98307.00;;;9.30
20058;BMP180;10189;49.546;7.906;2022-12-20T05:48:57;98315.00;;;9.30
20058;BMP180;10189;49.546;7.906;2022-12-20T05:51:23;98314.00;;;9.30
20058;BMP180;10189;49.546;7.906;2022-12-20T05:53:55;98310.00;;;9.30
20058;BMP180;10189;49.546;7.906;2022-12-20T05:56:33;98308.00;;;9.40
20058;BMP180;10189;49.546;7.906;2022-12-20T05:58:59;98320.00;;;9.50
20058;BMP180;10189;49.546;7.906;2022-12-20T06:01:24;98297.00;;;9.50
20058;BMP180;10189;49.546;7.906;2022-12-20T06:03:56;98295.00;;;9.60
20058;BMP180;10189;49.546;7.906;2022-12-20T06:06:22;98291.00;;;9.60
20058;BMP180;10189;49.546;7.906;2022-12-20T06:08:48;98293.00;;;9.70
20058;BMP180;10189;49.546;7.906;2022-12-20T06:11:20;98290.00;;;9.90
20058;BMP180;10189;49.546;7.906;2022-12-20T06:13:52;98283.00;;;9.90
20058;BMP180;10189;49.546;7.906;2022-12-20T06:16:18;98279.00;;;10.00
20058;BMP180;10189;49.546;7.906;2022-12-20T06:18:46;98270.00;;;10.10
20058;BMP180;10189;49.546;7.906;2022-12-20T06:21:12;98278.00;;;10.30
20058;BMP180;10189;49.546;7.906;2022-12-20T06:23:38;98289.00;;;10.30
20058;BMP180;10189;49.546;7.906;2022-12-20T06:26:07;98282.00;;;10.40
20058;BMP180;10189;49.546;7.906;2022-12-20T06:28:44;98286.00;;;10.50
20058;BMP180;10189;49.546;7.906;2022-12-20T06:31:10;98289.00;;;10.40
20058;BMP180;10189;49.546;7.906;2022-12-20T06:33:49;98290.00;;;10.40
20058;BMP180;10189;49.546;7.906;2022-12-20T06:36:16;98290.00;;;10.50
20058;BMP180;10189;49.546;7.906;2022-12-20T06:38:42;98283.00;;;10.60
20058;BMP180;10189;49.546;7.906;2022-12-20T06:41:09;98290.00;;;10.50
20058;BMP180;10189;49.546;7.906;2022-12-20T06:43:35;98292.00;;;10.60
20058;BMP180;10189;49.546;7.906;2022-12-20T06:46:01;98284.00;;;10.50
20058;BMP180;10189;49.546;7.906;2022-12-20T06:48:28;98282.00;;;10.50
20058;BMP180;10189;49.546;7.906;2022-12-20T06:50:54;98282.00;;;10.40
20058;BMP180;10189;49.546;7.906;2022-12-20T06:53:20;98272.00;;;10.30
20058;BMP180;10189;49.546;7.906;2022-12-20T06:55:47;98280.00;;;10.30
20058;BMP180;10189;49.546;7.906;2022-12-20T06:58:18;98281.00;;;10.30
20058;BMP180;10189;49.546;7.906;2022-12-20T07:00:46;98273.00;;;10.30
20058;BMP180;10189;49.546;7.906;2022-12-20T07:03:13;98281.00;;;10.30
20058;BMP180;10189;49.546;7.906;2022-12-20T07:05:39;98275.00;;;10.20
20058;BMP180;10189;49.546;7.906;2022-12-20T07:08:06;98270.00;;;10.10
20058;BMP180;10189;49.546;7.906;2022-12-20T07:10:36;98287.00;;;10.10
20058;BMP180;10189;49.546;7.906;2022-12-20T07:13:02;98280.00;;;10.10
20058;BMP180;10189;49.546;7.906;2022-12-20T07:15:28;98279.00;;;10.10
20058;BMP180;10189;49.546;7.906;2022-12-20T07:17:54;98265.00;;;10.10
20058;BMP180;10189;49.546;7.906;2022-12-20T07:20:20;98265.00;;;10.00
20058;BMP180;10189;49.546;7.906;2022-12-20T07:22:49;98268.00;;;10.10
20058;BMP180;10189;49.546;7.906;2022-12-20T07:25:14;98261.00;;;10.10
20058;BMP180;10189;49.546;7.906;2022-12-20T07:27:40;98272.00;;;10.10
20058;BMP180;10189;49.546;7.906;2022-12-20T07:30:07;98260.00;;;10.20
20058;BMP180;10189;49.546;7.906;2022-12-20T07:32:33;98266.00;;;10.10
20058;BMP180;10189;49.546;7.906;2022-12-20T07:34:59;98264.00;;;10.10
20058;BMP180;10189;49.546;7.906;2022-12-20T07:37:28;98265.00;;;10.10
20058;BMP180;10189;49.546;7.906;2022-12-20T07:39:54;98266.00;;;10.10
20058;BMP180;10189;49.546;7.906;2022-12-20T07:42:20;98247.00;;;10.10
20058;BMP180;10189;49.546;7.906;2022-12-20T07:44:48;98246.00;;;10.10
20058;BMP180;10189;49.546;7.906;2022-12-20T07:47:14;98248.00;;;10.10
20058;BMP180;10189;49.546;7.906;2022-12-20T07:49:40;98253.00;;;10.10
20058;BMP180;10189;49.546;7.906;2022-12-20T07:52:09;98256.00;;;10.20
20058;BMP180;10189;49.546;7.906;2022-12-20T07:54:46;98256.00;;;10.20
20058;BMP180;10189;49.546;7.906;2022-12-20T07:57:25;98256.00;;;10.40
20058;BMP180;10189;49.546;7.906;2022-12-20T07:59:56;98246.00;;;10.50
20058;BMP180;10189;49.546;7.906;2022-12-20T08:02:43;98242.00;;;10.50
20058;BMP180;10189;49.546;7.906;2022-12-20T08:05:10;98244.00;;;10.60
20058;BMP180;10189;49.546;7.906;2022-12-20T08:07:39;98245.00;;;10.60
20058;BMP180;10189;49.546;7.906;2022-12-20T08:10:09;98256.00;;;10.70
20058;BMP180;10189;49.546;7.906;2022-12-20T08:12:38;98247.00;;;10.80
20058;BMP180;10189;49.546;7.906;2022-12-20T08:15:05;98255.00;;;10.80
20058;BMP180;10189;49.546;7.906;2022-12-20T08:17:31;98248.00;;;10.90
20058;BMP180;10189;49.546;7.906;2022-12-20T08:19:56;98247.00;;;10.90
20058;BMP180;10189;49.546;7.906;2022-12-20T08:22:22;98233.00;;;10.90
20058;BMP180;10189;49.546;7.906;2022-12-20T08:24:48;98228.00;;;10.80
20058;BMP180;10189;49.546;7.906;2022-12-20T08:27:14;98223.00;;;10.80
20058;BMP180;10189;49.546;7.906;2022-12-20T08:29:40;98220.00;;;10.70
20058;BMP180;10189;49.546;7.906;2022-12-20T08:32:06;98217.00;;;10.80
20058;BMP180;10189;49.546;7.906;2022-12-20T08:34:32;98220.00;;;10.90
20058;BMP180;10189;49.546;7.906;2022-12-20T08:36:58;98215.00;;;11.00
20058;BMP180;10189;49.546;7.906;2022-12-20T08:39:24;98211.00;;;11.10
20058;BMP180;10189;49.546;7.906;2022-12-20T08:41:50;98209.00;;;11.10
20058;BMP180;10189;49.546;7.906;2022-12-20T08:44:16;98215.00;;;11.20
20058;BMP180;10189;49.546;7.906;2022-12-20T08:46:42;98204.00;;;11.30
20058;BMP180;10189;49.546;7.906;2022-12-20T08:49:08;98202.00;;;11.30
20058;BMP180;10189;49.546;7.906;2022-12-20T08:51:33;98209.00;;;11.60
20058;BMP180;10189;49.546;7.906;2022-12-20T08:53:59;98202.00;;;11.70
20058;BMP180;10189;49.546;7.906;2022-12-20T08:56:27;98209.00;;;11.80
20058;BMP180;10189;49.546;7.906;2022-12-20T08:58:53;98209.00;;;11.80
20058;BMP180;10189;49.546;7.906;2022-12-20T09:01:20;98208.00;;;11.80
20058;BMP180;10189;49.546;7.906;2022-12-20T09:03:48;98213.00;;;12.00
20058;BMP180;10189;49.546;7.906;2022-12-20T09:06:20;98216.00;;;12.10
20058;BMP180;10189;49.546;7.906;2022-12-20T09:08:47;98206.00;;;12.20
20058;BMP180;10189;49.546;7.906;2022-12-20T09:11:17;98202.00;;;12.20
20058;BMP180;10189;49.546;7.906;2022-12-20T09:13:46;98208.00;;;12.20
20058;BMP180;10189;49.546;7.906;2022-12-20T09:16:18;98201.00;;;12.20
20058;BMP180;10189;49.546;7.906;2022-12-20T09:18:52;98203.00;;;12.10
20058;BMP180;10189;49.546;7.906;2022-12-20T09:21:20;98203.00;;;12.10
20058;BMP180;10189;49.546;7.906;2022-12-20T09:23:48;98198.00;;;12.20
20058;BMP180;10189;49.546;7.906;2022-12-20T09:26:16;98189.00;;;12.30
20058;BMP180;10189;49.546;7.906;2022-12-20T09:28:43;98182.00;;;12.30
20058;BMP180;10189;49.546;7.906;2022-12-20T09:31:16;98189.00;;;12.40
20058;BMP180;10189;49.546;7.906;2022-12-20T09:33:43;98190.00;;;12.50
20058;BMP180;10189;49.546;7.906;2022-12-20T09:36:20;98182.00;;;12.70
20058;BMP180;10189;49.546;7.906;2022-12-20T09:38:47;98180.00;;;13.00
20058;BMP180;10189;49.546;7.906;2022-12-20T09:41:27;98169.00;;;13.00
20058;BMP180;10189;49.546;7.906;2022-12-20T09:43:54;98177.00;;;13.20
20058;BMP180;10189;49.546;7.906;2022-12-20T09:46:23;98170.00;;;13.30
20058;BMP180;10189;49.546;7.906;2022-12-20T09:48:49;98170.00;;;13.50
20058;BMP180;10189;49.546;7.906;2022-12-20T09:54:33;98162.00;;;13.90
20058;BMP180;10189;49.546;7.906;2022-12-20T09:59:55;98166.00;;;14.10
20058;BMP180;10189;49.546;7.906;2022-12-20T10:02:24;98160.00;;;14.00
20058;BMP180;10189;49.546;7.906;2022-12-20T10:04:51;98169.00;;;14.00
20058;BMP180;10189;49.546;7.906;2022-12-20T10:07:37;98166.00;;;14.10
20058;BMP180;10189;49.546;7.906;2022-12-20T10:10:40;98174.00;;;14.00
20058;BMP180;10189;49.546;7.906;2022-12-20T10:13:22;98169.00;;;14.00
20058;BMP180;10189;49.546;7.906;2022-12-20T10:16:29;98163.00;;;14.30
20058;BMP180;10189;49.546;7.906;2022-12-20T10:22:13;98155.00;;;14.50
20058;BMP180;10189;49.546;7.906;2022-12-20T10:24:52;98162.00;;;14.70
20058;BMP180;10189;49.546;7.906;2022-12-20T10:27:20;98148.00;;;14.70
20058;BMP180;10189;49.546;7.906;2022-12-20T10:29:49;98153.00;;;14.80
20058;BMP180;10189;49.546;7.906;2022-12-20T10:32:19;98145.00;;;14.90
20058;BMP180;10189;49.546;7.906;2022-12-20T10:40:33;98122.00;;;15.10
20058;BMP180;10189;49.546;7.906;2022-12-20T10:43:02;98128.00;;;14.90
20058;BMP180;10189;49.546;7.906;2022-12-20T10:45:37;98128.00;;;14.90
20058;BMP180;10189;49.546;7.906;2022-12-20T10:48:32;98123.00;;;15.00
20058;BMP180;10189;49.546;7.906;2022-12-20T10:51:01;98121.00;;;14.90
20058;BMP180;10189;49.546;7.906;2022-12-20T10:53:30;98127.00;;;14.90
20058;BMP180;10189;49.546;7.906;2022-12-20T10:56:18;98117.00;;;15.00
20058;BMP180;10189;49.546;7.906;2022-12-20T11:01:44;98115.00;;;15.10
20058;BMP180;10189;49.546;7.906;2022-12-20T11:04:24;98101.00;;;15.30
20058;BMP180;10189;49.546;7.906;2022-12-20T11:06:51;98089.00;;;15.40
20058;BMP180;10189;49.546;7.906;2022-12-20T11:09:31;98084.00;;;15.50
20058;BMP180;10189;49.546;7.906;2022-12-20T11:14:35;98086.00;;;15.80
20058;BMP180;10189;49.546;7.906;2022-12-20T11:37:25;98055.00;;;15.80
20058;BMP180;10189;49.546;7.906;2022-12-20T11:40:30;98052.00;;;15.70
20058;BMP180;10189;49.546;7.906;2022-12-20T11:56:47;98047.00;;;15.30
20058;BMP180;10189;49.546;7.906;2022-12-20T11:59:34;98055.00;;;15.40
20058;BMP180;10189;49.546;7.906;2022-12-20T12:02:33;98066.00;;;15.50
20058;BMP180;10189;49.546;7.906;2022-12-20T12:08:04;98041.00;;;15.60
20058;BMP180;10189;49.546;7.906;2022-12-20T12:10:38;98033.00;;;15.70
20058;BMP180;10189;49.546;7.906;2022-12-20T12:13:30;98035.00;;;15.60
20058;BMP180;10189;49.546;7.906;2022-12-20T12:18:39;98028.00;;;15.50
20058;BMP180;10189;49.546;7.906;2022-12-20T12:21:23;98004.00;;;15.70
20058;BMP180;10189;49.546;7.906;2022-12-20T12:26:38;97998.00;;;16.00
20058;BMP180;10189;49.546;7.906;2022-12-20T12:32:06;97994.00;;;16.00
20058;BMP180;10189;49.546;7.906;2022-12-20T12:45:49;97990.00;;;15.40
20058;BMP180;10189;49.546;7.906;2022-12-20T12:51:10;97985.00;;;15.20
20058;BMP180;10189;49.546;7.906;2022-12-20T12:53:49;97979.00;;;15.00
20058;BMP180;10189;49.546;7.906;2022-12-20T13:04:58;97992.00;;;15.00
20058;BMP180;10189;49.546;7.906;2022-12-20T13:09:59;97987.00;;;14.90
20058;BMP180;10189;49.546;7.906;2022-12-20T13:21:27;97988.00;;;15.20
20058;BMP180;10189;49.546;7.906;2022-12-20T13:27:33;97978.00;;;15.10
20058;BMP180;10189;49.546;7.906;2022-12-20T13:41:31;97972.00;;;15.00
20058;BMP180;10189;49.546;7.906;2022-12-20T13:44:22;97978.00;;;15.00
20058;BMP180;10189;49.546;7.906;2022-12-20T13:49:50;97965.00;;;15.00
20058;BMP180;10189;49.546;7.906;2022-12-20T13:52:29;97970.00;;;14.90
20058;BMP180;10189;49.546;7.906;2022-12-20T13:55:16;97966.00;;;14.80
20058;BMP180;10189;49.546;7.906;2022-12-20T13:57:47;97977.00;;;14.80
20058;BMP180;10189;49.546;7.906;2022-12-20T14:00:24;97973.00;;;14.80
20058;BMP180;10189;49.546;7.906;2022-12-20T14:02:52;97958.00;;;14.70
20058;BMP180;10189;49.546;7.906;2022-12-20T14:05:25;97958.00;;;14.80
20058;BMP180;10189;49.546;7.906;2022-12-20T14:08:06;97951.00;;;14.90
20058;BMP180;10189;49.546;7.906;2022-12-20T14:10:34;97948.00;;;14.90
20058;BMP180;10189;49.546;7.906;2022-12-20T14:13:01;97948.00;;;15.00
20058;BMP180;10189;49.546;7.906;2022-12-20T14:15:34;97951.00;;;15.00
20058;BMP180;10189;49.546;7.906;2022-12-20T14:18:26;97948.00;;;14.80
20058;BMP180;10189;49.546;7.906;2022-12-20T14:21:04;97943.00;;;14.60
20058;BMP180;10189;49.546;7.906;2022-12-20T14:23:46;97941.00;;;14.40
20058;BMP180;10189;49.546;7.906;2022-12-20T14:26:21;97942.00;;;14.20
20058;BMP180;10189;49.546;7.906;2022-12-20T14:28:55;97930.00;;;14.10
20058;BMP180;10189;49.546;7.906;2022-12-20T14:36:48;97957.00;;;13.80
20058;BMP180;10189;49.546;7.906;2022-12-20T14:39:26;97956.00;;;13.70
20058;BMP180;10189;49.546;7.906;2022-12-20T14:44:39;97953.00;;;13.60
20058;BMP180;10189;49.546;7.906;2022-12-20T14:47:19;97951.00;;;13.60
20058;BMP180;10189;49.546;7.906;2022-12-20T14:49:52;97945.00;;;13.60
20058;BMP180;10189;49.546;7.906;2022-12-20T14:52:37;97939.00;;;13.60
20058;BMP180;10189;49.546;7.906;2022-12-20T14:55:33;97941.00;;;13.50
20058;BMP180;10189;49.546;7.906;2022-12-20T14:58:05;97942.00;;;13.50
20058;BMP180;10189;49.546;7.906;2022-12-20T15:00:33;97940.00;;;13.40
20058;BMP180;10189;49.546;7.906;2022-12-20T15:03:15;97953.00;;;13.30
20058;BMP180;10189;49.546;7.906;2022-12-20T15:05:55;97945.00;;;13.20
20058;BMP180;10189;49.546;7.906;2022-12-20T15:08:26;97945.00;;;13.00
20058;BMP180;10189;49.546;7.906;2022-12-20T15:11:03;97938.00;;;13.00
20058;BMP180;10189;49.546;7.906;2022-12-20T15:13:39;97935.00;;;12.90
20058;BMP180;10189;49.546;7.906;2022-12-20T15:16:23;97926.00;;;12.80
20058;BMP180;10189;49.546;7.906;2022-12-20T15:18:53;97935.00;;;12.70
20058;BMP180;10189;49.546;7.906;2022-12-20T15:23:56;97915.00;;;12.60
20058;BMP180;10189;49.546;7.906;2022-12-20T15:26:25;97937.00;;;12.50
20058;BMP180;10189;49.546;7.906;2022-12-20T15:28:53;97944.00;;;12.50
20058;BMP180;10189;49.546;7.906;2022-12-20T15:31:21;97936.00;;;12.50
20058;BMP180;10189;49.546;7.906;2022-12-20T15:33:49;97935.00;;;12.50
20058;BMP180;10189;49.546;7.906;2022-12-20T15:36:22;97926.00;;;12.40
20058;BMP180;10189;49.546;7.906;2022-12-20T15:38:49;97913.00;;;12.40
20058;BMP180;10189;49.546;7.906;2022-12-20T15:41:23;97922.00;;;12.40
20058;BMP180;10189;49.546;7.906;2022-12-20T15:43:54;97924.00;;;12.30
20058;BMP180;10189;49.546;7.906;2022-12-20T15:46:21;97927.00;;;12.30
20058;BMP180;10189;49.546;7.906;2022-12-20T15:48:47;97937.00;;;12.20
20058;BMP180;10189;49.546;7.906;2022-12-20T15:51:20;97928.00;;;12.30
20058;BMP180;10189;49.546;7.906;2022-12-20T15:53:46;97936.00;;;12.30
20058;BMP180;10189;49.546;7.906;2022-12-20T15:56:24;97933.00;;;12.20
20058;BMP180;10189;49.546;7.906;2022-12-20T15:58:50;97941.00;;;12.20
20058;BMP180;10189;49.546;7.906;2022-12-20T16:01:38;97941.00;;;12.20
20058;BMP180;10189;49.546;7.906;2022-12-20T16:04:05;97941.00;;;12.20
20058;BMP180;10189;49.546;7.906;2022-12-20T16:06:32;97939.00;;;12.10
20058;BMP180;10189;49.546;7.906;2022-12-20T16:08:58;97929.00;;;12.20
20058;BMP180;10189;49.546;7.906;2022-12-20T16:11:30;97947.00;;;12.00
20058;BMP180;10189;49.546;7.906;2022-12-20T16:13:58;97951.00;;;12.00
20058;BMP180;10189;49.546;7.906;2022-12-20T16:16:33;97934.00;;;12.00
20058;BMP180;10189;49.546;7.906;2022-12-20T16:19:00;97938.00;;;12.00
20058;BMP180;10189;49.546;7.906;2022-12-20T16:21:32;97948.00;;;11.90
20058;BMP180;10189;49.546;7.906;2022-12-20T16:23:58;97942.00;;;11.90
20058;BMP180;10189;49.546;7.906;2022-12-20T16:26:25;97935.00;;;11.90
20058;BMP180;10189;49.546;7.906;2022-12-20T16:28:53;97937.00;;;11.90
20058;BMP180;10189;49.546;7.906;2022-12-20T16:31:28;97940.00;;;11.80
20058;BMP180;10189;49.546;7.906;2022-12-20T16:34:00;97941.00;;;11.80
20058;BMP180;10189;49.546;7.906;2022-12-20T16:36:28;97928.00;;;11.80
20058;BMP180;10189;49.546;7.906;2022-12-20T16:38:55;97931.00;;;11.70
20058;BMP180;10189;49.546;7.906;2022-12-20T16:41:27;97924.00;;;11.70
20058;BMP180;10189;49.546;7.906;2022-12-20T16:43:58;97926.00;;;11.70
20058;BMP180;10189;49.546;7.906;2022-12-20T16:46:27;97922.00;;;11.70
20058;BMP180;10189;49.546;7.906;2022-12-20T16:48:55;97929.00;;;11.60
20058;BMP180;10189;49.546;7.906;2022-12-20T16:51:30;97915.00;;;11.60
20058;BMP180;10189;49.546;7.906;2022-12-20T16:54:02;97910.00;;;11.50
20058;BMP180;10189;49.546;7.906;2022-12-20T16:56:29;97903.00;;;11.60
20058;BMP180;10189;49.546;7.906;2022-12-20T16:58:56;97911.00;;;11.50
20058;BMP180;10189;49.546;7.906;2022-12-20T17:01:31;97913.00;;;11.50
20058;BMP180;10189;49.546;7.906;2022-12-20T17:03:57;97905.00;;;11.60